Time;durP1;ratioP1;P1;durP2;ratioP2;P2;SDS_P1;SDS_P2;PMS_P1;PMS_P2;Temp;Humidity;BMP_temperature;BMP_pressure;BME280_temperature;BME280_humidity;BME280_pressure;Samples;Min_cycle;Max_cycle;Signal;HPM_P1;HPM_P2
2023/07/09 00:00:57;;;;;;;7.13;4.03;;;18.10;99.90;;;;;;5100177;28;20461;-72
2023/07/09 00:03:23;;;;;;;5.82;3.75;;;18.10;99.90;;;;;;5109366;28;20031;-72
2023/07/09 00:05:49;;;;;;;5.70;3.83;;;18.10;99.90;;;;;;5110304;28;20058;-72
2023/07/09 00:08:30;;;;;;;6.03;3.75;;;18.10;99.90;;;;;;5113199;28;20024;-72
2023/07/09 00:10:56;;;;;;;6.47;4.00;;;18.10;99.90;;;;;;5109376;28;20023;-72
2023/07/09 00:13:24;;;;;;;7.78;4.47;;;18.10;99.90;;;;;;5098494;28;20032;-73
2023/07/09 00:15:50;;;;;;;6.63;3.95;;;18.10;99.90;;;;;;5101912;28;20024;-72
2023/07/09 00:18:16;;;;;;;7.40;4.32;;;18.00;99.90;;;;;;5099729;28;20093;-72
2023/07/09 00:20:43;;;;;;;9.20;4.20;;;17.90;99.90;;;;;;5079711;28;20498;-72
2023/07/09 00:23:13;;;;;;;8.85;4.55;;;17.80;99.90;;;;;;5078244;28;20031;-72
2023/07/09 00:25:45;;;;;;;7.88;4.35;;;17.70;99.90;;;;;;5102823;28;20055;-72
2023/07/09 00:28:17;;;;;;;7.70;4.00;;;17.70;99.90;;;;;;5106388;28;20032;-72
2023/07/09 00:30:44;;;;;;;6.95;4.20;;;17.80;99.90;;;;;;5108101;28;20032;-72
2023/07/09 00:33:14;;;;;;;7.03;3.83;;;17.80;99.90;;;;;;5099707;28;20035;-72
2023/07/09 00:35:46;;;;;;;6.93;4.18;;;17.70;99.90;;;;;;5096813;28;20028;-72
2023/07/09 00:38:21;;;;;;;9.63;4.35;;;17.70;99.90;;;;;;5104982;28;20024;-73
2023/07/09 00:41:17;;;;;;;8.55;4.70;;;17.70;99.90;;;;;;5110613;28;20065;-73
2023/07/09 00:43:44;;;;;;;7.30;4.53;;;17.70;99.90;;;;;;5100280;28;20469;-73
2023/07/09 00:46:27;;;;;;;8.43;4.60;;;17.70;99.90;;;;;;5113626;28;20036;-72
2023/07/09 00:49:10;;;;;;;6.30;4.13;;;17.60;99.90;;;;;;5100759;28;20150;-73
2023/07/09 00:51:41;;;;;;;6.63;4.20;;;17.60;99.90;;;;;;5095926;28;20028;-73
2023/07/09 00:54:23;;;;;;;9.18;4.22;;;17.60;99.90;;;;;;5094613;28;20027;-73
2023/07/09 00:56:52;;;;;;;6.35;3.97;;;17.60;99.90;;;;;;5096117;28;20031;-72
2023/07/09 00:59:23;;;;;;;6.55;3.78;;;17.70;99.90;;;;;;5094518;28;20111;-73
2023/07/09 01:01:49;;;;;;;;;;;17.70;99.90;;;;;;5095471;28;20016;-73
2023/07/09 01:04:21;;;;;;;6.47;4.13;;;17.70;99.90;;;;;;5078311;28;19911;-72
2023/07/09 01:06:52;;;;;;;6.38;4.03;;;17.70;99.90;;;;;;5115838;28;20020;-73
2023/07/09 01:09:18;;;;;;;6.30;3.88;;;17.70;99.90;;;;;;5114212;28;20027;-73
2023/07/09 01:11:44;;;;;;;7.97;4.25;;;17.60;99.90;;;;;;5114455;28;20047;-72
2023/07/09 01:14:19;;;;;;;9.93;4.40;;;17.50;99.90;;;;;;5101880;28;20504;-73
2023/07/09 01:16:56;;;;;;;6.68;3.88;;;17.40;99.90;;;;;;5100453;28;20085;-73
2023/07/09 01:19:25;;;;;;;7.38;3.78;;;17.30;99.90;;;;;;5095369;28;21772;-73
2023/07/09 01:21:53;;;;;;;6.82;4.32;;;17.30;99.90;;;;;;5113970;28;20545;-73
2023/07/09 01:24:49;;;;;;;6.20;3.72;;;17.30;99.90;;;;;;5115008;28;20047;-73
2023/07/09 01:27:16;;;;;;;7.55;3.83;;;17.30;99.90;;;;;;5096021;28;20522;-72
2023/07/09 01:29:45;;;;;;;7.00;3.95;;;17.40;99.90;;;;;;5091832;28;20032;-74
2023/07/09 01:32:14;;;;;;;7.95;4.47;;;17.30;99.90;;;;;;5095231;28;20028;-73
2023/07/09 01:34:40;;;;;;;8.73;4.05;;;17.30;99.90;;;;;;5095223;28;20413;-73
2023/07/09 01:37:09;;;;;;;6.32;3.88;;;17.30;99.90;;;;;;5095249;28;20056;-73
2023/07/09 01:39:35;;;;;;;8.93;4.53;;;17.30;99.90;;;;;;5076872;28;20122;-73
2023/07/09 01:42:01;;;;;;;8.85;4.90;;;17.40;99.90;;;;;;5093662;28;20016;-73
2023/07/09 01:44:29;;;;;;;9.60;5.20;;;17.30;99.90;;;;;;5095048;28;20034;-73
2023/07/09 01:46:54;;;;;;;7.35;5.18;;;17.20;99.90;;;;;;5076567;28;20024;-73
2023/07/09 01:49:20;;;;;;;8.55;4.70;;;17.10;99.90;;;;;;5094775;28;20021;-73
2023/07/09 01:51:49;;;;;;;7.13;4.25;;;17.10;99.90;;;;;;5094694;28;20094;-74
2023/07/09 01:54:17;;;;;;;7.40;4.47;;;17.00;99.90;;;;;;5060483;28;20024;-73
2023/07/09 01:56:43;;;;;;;6.15;3.90;;;17.00;99.90;;;;;;5094879;28;20107;-74
2023/07/09 01:59:11;;;;;;;8.10;4.03;;;16.90;99.90;;;;;;5093812;28;20420;-74
2023/07/09 02:01:38;;;;;;;6.70;4.35;;;16.90;99.90;;;;;;5076293;28;20040;-74
2023/07/09 02:04:04;;;;;;;10.07;4.60;;;17.00;99.90;;;;;;5094656;28;20032;-73
2023/07/09 02:06:31;;;;;;;7.97;4.50;;;16.90;99.90;;;;;;5076392;28;20107;-74
2023/07/09 02:08:58;;;;;;;8.23;4.43;;;17.00;99.90;;;;;;5077006;28;20028;-74
2023/07/09 02:11:24;;;;;;;8.88;4.55;;;17.00;99.90;;;;;;5094341;28;20062;-74
2023/07/09 02:13:50;;;;;;;7.63;4.38;;;17.00;99.90;;;;;;5076256;28;20039;-73
2023/07/09 02:16:15;;;;;;;7.45;4.82;;;16.90;99.90;;;;;;5076310;28;20024;-74
2023/07/09 02:18:41;;;;;;;8.98;4.80;;;16.80;99.90;;;;;;5094498;28;20055;-73
2023/07/09 02:21:07;;;;;;;8.23;5.00;;;16.70;99.90;;;;;;5076132;28;20057;-73
2023/07/09 02:23:32;;;;;;;7.20;4.60;;;16.70;99.90;;;;;;5094069;28;20031;-74
2023/07/09 02:25:58;;;;;;;6.93;4.43;;;16.70;99.90;;;;;;5094077;28;20039;-73
2023/07/09 02:28:23;;;;;;;7.22;4.43;;;16.70;99.90;;;;;;5094012;28;20035;-73
2023/07/09 02:30:49;;;;;;;6.40;4.30;;;16.80;99.90;;;;;;5093948;28;20154;-74
2023/07/09 02:33:15;;;;;;;8.70;4.80;;;16.80;99.90;;;;;;5093938;28;20440;-73
2023/07/09 02:35:40;;;;;;;7.10;4.20;;;16.80;99.90;;;;;;5075781;28;20406;-74
2023/07/09 02:38:06;;;;;;;6.80;4.30;;;16.90;99.90;;;;;;5075995;28;20081;-73
2023/07/09 02:40:33;;;;;;;7.40;4.00;;;16.90;99.90;;;;;;5093978;28;20032;-74
2023/07/09 02:42:59;;;;;;;7.55;4.38;;;16.90;99.90;;;;;;5094276;28;20405;-73
2023/07/09 02:45:25;;;;;;;7.80;4.18;;;16.80;99.90;;;;;;5076331;28;20028;-74
2023/07/09 02:47:50;;;;;;;6.90;4.10;;;16.70;99.90;;;;;;5094011;28;20023;-74
2023/07/09 02:50:16;;;;;;;7.78;4.28;;;16.60;99.90;;;;;;5075746;28;20032;-74
2023/07/09 02:52:42;;;;;;;7.85;3.80;;;16.50;99.90;;;;;;5094009;28;20054;-73
2023/07/09 02:55:08;;;;;;;6.28;3.75;;;16.50;99.90;;;;;;5093762;28;20028;-74
2023/07/09 02:57:34;;;;;;;6.38;4.30;;;16.50;99.90;;;;;;5094320;28;20040;-74
2023/07/09 02:59:59;;;;;;;7.55;4.55;;;16.50;99.90;;;;;;5075761;28;20032;-74
2023/07/09 03:02:26;;;;;;;9.02;4.68;;;16.50;99.90;;;;;;5075371;28;20043;-73
2023/07/09 03:04:52;;;;;;;6.72;3.53;;;16.60;99.90;;;;;;5093560;28;20016;-74
2023/07/09 03:07:17;;;;;;;6.85;4.03;;;16.60;99.90;;;;;;5093886;28;20488;-74
2023/07/09 03:09:43;;;;;;;7.75;4.15;;;16.60;99.90;;;;;;5093528;28;20103;-74
2023/07/09 03:12:09;;;;;;;7.78;4.07;;;16.70;99.90;;;;;;5093437;28;20025;-73
2023/07/09 03:14:36;;;;;;;8.00;4.28;;;16.70;99.90;;;;;;5075576;28;20041;-73
2023/07/09 03:17:01;;;;;;;5.95;4.13;;;16.70;99.90;;;;;;5093876;28;20489;-74
2023/07/09 03:19:27;;;;;;;6.40;3.97;;;16.80;99.90;;;;;;5075475;28;20043;-74
2023/07/09 03:21:53;;;;;;;7.72;4.30;;;16.80;99.90;;;;;;5093461;28;20028;-73
2023/07/09 03:24:19;;;;;;;7.57;4.70;;;16.80;99.90;;;;;;5075474;28;20028;-73
2023/07/09 03:26:48;;;;;;;10.15;4.53;;;16.80;99.90;;;;;;5093348;28;20027;-74
2023/07/09 03:29:13;;;;;;;8.90;4.30;;;16.90;99.90;;;;;;5093439;28;20024;-73
2023/07/09 03:31:39;;;;;;;7.80;4.45;;;16.80;99.90;;;;;;5075349;28;20119;-74
2023/07/09 03:34:05;;;;;;;7.68;4.18;;;16.90;99.90;;;;;;5075440;28;20508;-74
2023/07/09 03:36:30;;;;;;;6.15;3.97;;;16.90;99.90;;;;;;5093662;23;20040;-76
2023/07/09 03:38:56;;;;;;;6.95;4.35;;;16.90;99.90;;;;;;5113643;28;20028;-75
2023/07/09 03:41:22;;;;;;;6.80;3.80;;;16.90;99.90;;;;;;5113626;28;20502;-75
2023/07/09 03:43:50;;;;;;;6.78;4.10;;;16.80;99.90;;;;;;5095444;28;20032;-75
2023/07/09 03:46:15;;;;;;;6.80;3.90;;;16.80;99.90;;;;;;5113842;28;20472;-76
2023/07/09 03:48:41;;;;;;;7.38;4.38;;;16.80;99.90;;;;;;5095347;28;20085;-76
2023/07/09 03:51:07;;;;;;;7.22;4.18;;;16.70;99.90;;;;;;5095065;28;20073;-76
2023/07/09 03:53:32;;;;;;;7.78;4.10;;;16.60;99.90;;;;;;5113421;28;20038;-76
2023/07/09 03:55:59;;;;;;;8.48;4.20;;;16.50;99.90;;;;;;5113415;28;20067;-76
2023/07/09 03:58:26;;;;;;;7.20;4.82;;;16.40;99.90;;;;;;5113422;28;20024;-76
2023/07/09 04:00:53;;;;;;;8.10;4.18;;;16.40;99.90;;;;;;5113317;28;20162;-76
2023/07/09 04:03:19;;;;;;;6.93;3.97;;;16.30;99.90;;;;;;5113291;28;20594;-76
2023/07/09 04:05:45;;;;;;;8.63;4.20;;;16.30;99.90;;;;;;5113026;28;20111;-76
2023/07/09 04:08:10;;;;;;;8.35;4.70;;;16.40;99.90;;;;;;5095298;28;20028;-76
2023/07/09 04:10:36;;;;;;;6.88;3.70;;;16.30;99.90;;;;;;5095240;28;20085;-76
2023/07/09 04:13:02;;;;;;;8.15;4.28;;;16.30;99.90;;;;;;5095234;28;20485;-76
2023/07/09 04:15:27;;;;;;;7.50;4.10;;;16.40;99.90;;;;;;5113161;28;20035;-76
2023/07/09 04:17:54;;;;;;;6.97;3.75;;;16.40;99.90;;;;;;5095057;28;20051;-76
2023/07/09 04:20:20;;;;;;;7.07;4.13;;;16.50;99.90;;;;;;5112894;28;20396;-76
2023/07/09 04:22:46;;;;;;;6.45;4.30;;;16.50;99.90;;;;;;5114984;28;20024;-76
2023/07/09 04:25:12;;;;;;;9.80;4.43;;;16.50;99.90;;;;;;5116853;28;20026;-76
2023/07/09 04:27:39;;;;;;;7.18;4.20;;;16.40;99.90;;;;;;5098564;28;20108;-76
2023/07/09 04:30:09;;;;;;;7.38;4.35;;;16.40;99.90;;;;;;5117314;28;20059;-76
2023/07/09 04:32:36;;;;;;;7.28;4.45;;;16.50;99.90;;;;;;5116794;28;20029;-76
2023/07/09 04:35:02;;;;;;;7.18;4.30;;;16.50;99.90;;;;;;5098150;28;20035;-76
2023/07/09 04:37:28;;;;;;;9.23;4.43;;;16.50;99.90;;;;;;5116288;28;20043;-76
2023/07/09 04:39:53;;;;;;;8.65;4.38;;;16.60;99.90;;;;;;5081509;28;20031;-76
2023/07/09 04:42:19;;;;;;;8.10;4.43;;;16.60;99.90;;;;;;5116795;28;20019;-76
2023/07/09 04:44:45;;;;;;;6.65;3.97;;;16.60;99.90;;;;;;5116603;28;20065;-76
2023/07/09 04:47:12;;;;;;;6.88;4.43;;;16.60;99.90;;;;;;5116586;28;20130;-76
2023/07/09 04:49:38;;;;;;;8.05;4.53;;;16.60;99.90;;;;;;5098141;28;20071;-76
2023/07/09 04:52:04;;;;;;;6.97;4.38;;;16.60;99.90;;;;;;5116136;28;20077;-76
2023/07/09 04:54:30;;;;;;;7.25;4.93;;;16.60;99.90;;;;;;5081218;28;20023;-76
2023/07/09 04:56:56;;;;;;;6.55;4.10;;;16.50;99.90;;;;;;5098143;28;20022;-76
2023/07/09 04:59:22;;;;;;;9.70;4.97;;;16.50;99.90;;;;;;5116162;28;20020;-76
2023/07/09 05:01:48;;;;;;;7.15;4.43;;;16.60;99.90;;;;;;5116414;28;20495;-76
2023/07/09 05:04:14;;;;;;;6.93;4.32;;;16.60;99.90;;;;;;5116402;28;20095;-76
2023/07/09 05:06:39;;;;;;;7.50;4.65;;;16.60;99.90;;;;;;5115660;28;20424;-76
2023/07/09 05:09:05;;;;;;;7.03;3.90;;;16.70;99.90;;;;;;5116098;28;20534;-76
2023/07/09 05:11:36;;;;;;;6.72;3.90;;;16.80;99.90;;;;;;5116049;28;20034;-76
2023/07/09 05:14:02;;;;;;;9.52;4.25;;;16.80;99.90;;;;;;5116443;28;20023;-76
2023/07/09 05:16:27;;;;;;;7.13;4.57;;;16.80;99.90;;;;;;5097586;28;20054;-76
2023/07/09 05:18:53;;;;;;;6.30;4.00;;;16.80;99.90;;;;;;5098209;28;20032;-76
2023/07/09 05:21:19;;;;;;;6.43;3.88;;;16.90;99.90;;;;;;5115558;28;20031;-76
2023/07/09 05:23:45;;;;;;;6.25;4.18;;;16.90;99.90;;;;;;5116044;28;20035;-76
2023/07/09 05:26:11;;;;;;;7.95;4.72;;;16.90;99.90;;;;;;5115926;28;20019;-76
2023/07/09 05:28:36;;;;;;;7.82;4.60;;;17.00;99.90;;;;;;5097453;28;20516;-76
2023/07/09 05:31:04;;;;;;;10.27;4.05;;;17.00;99.90;;;;;;5115590;28;20055;-76
2023/07/09 05:33:30;;;;;;;6.43;4.28;;;17.10;99.90;;;;;;5097069;28;20027;-76
2023/07/09 05:35:56;;;;;;;8.38;5.03;;;17.10;99.90;;;;;;5080027;28;20066;-76
2023/07/09 05:38:21;;;;;;;6.50;4.45;;;17.10;99.90;;;;;;5115907;28;20148;-76
2023/07/09 05:40:48;;;;;;;8.43;4.50;;;17.20;99.90;;;;;;5116481;28;20023;-76
2023/07/09 05:43:14;;;;;;;7.20;4.63;;;17.20;99.90;;;;;;5115793;28;20034;-76
2023/07/09 05:45:40;;;;;;;8.43;4.50;;;17.30;99.90;;;;;;5097180;28;20060;-76
2023/07/09 05:48:06;;;;;;;7.22;4.82;;;17.30;99.90;;;;;;5096951;28;20051;-75
2023/07/09 05:50:34;;;;;;;8.00;4.68;;;17.40;99.90;;;;;;5096874;28;20055;-76
2023/07/09 05:53:00;;;;;;;7.70;4.90;;;17.50;99.90;;;;;;5115195;28;20365;-76
2023/07/09 05:55:26;;;;;;;11.82;6.60;;;17.60;99.90;;;;;;5063311;28;20039;-76
2023/07/09 05:57:53;;;;;;;12.75;6.78;;;17.70;99.90;;;;;;5115126;28;20030;-76
2023/07/09 06:00:19;;;;;;;10.27;6.00;;;17.80;99.90;;;;;;5115190;28;20086;-76
2023/07/09 06:02:45;;;;;;;11.27;6.25;;;17.90;99.90;;;;;;5114999;28;20520;-76
2023/07/09 06:05:11;;;;;;;9.23;6.13;;;18.00;99.90;;;;;;5096448;28;20024;-76
2023/07/09 06:07:37;;;;;;;12.05;6.65;;;18.00;99.90;;;;;;5114667;28;20051;-76
2023/07/09 06:10:05;;;;;;;13.75;6.72;;;18.10;99.90;;;;;;5096537;28;20047;-76
2023/07/09 06:12:31;;;;;;;11.80;6.40;;;18.10;99.90;;;;;;5115060;28;20055;-76
2023/07/09 06:14:56;;;;;;;8.93;5.30;;;18.20;99.90;;;;;;5114620;28;20068;-75
2023/07/09 06:17:22;;;;;;;9.85;6.32;;;18.30;99.90;;;;;;5096659;28;20024;-76
2023/07/09 06:19:48;;;;;;;12.02;6.80;;;18.40;99.90;;;;;;5096216;28;20035;-76
2023/07/09 06:22:13;;;;;;;11.70;5.90;;;18.50;99.90;;;;;;5114424;28;20129;-76
2023/07/09 06:24:39;;;;;;;10.68;6.53;;;18.50;99.90;;;;;;5096484;28;20049;-76
2023/07/09 06:27:05;;;;;;;13.00;7.32;;;18.60;99.90;;;;;;5096363;28;20077;-76
2023/07/09 06:29:30;;;;;;;8.18;5.82;;;18.70;99.90;;;;;;5114392;28;20020;-76
2023/07/09 06:31:56;;;;;;;10.63;6.10;;;18.80;99.90;;;;;;5096358;28;20112;-76
2023/07/09 06:34:22;;;;;;;12.52;6.07;;;18.80;99.90;;;;;;5114448;28;20051;-76
2023/07/09 06:36:47;;;;;;;10.70;6.35;;;18.90;99.90;;;;;;5114156;28;20035;-76
2023/07/09 06:39:13;;;;;;;9.60;6.40;;;19.00;99.90;;;;;;5114300;28;20032;-76
2023/07/09 06:41:39;;;;;;;13.57;6.50;;;19.10;99.90;;;;;;5114241;28;20034;-76
2023/07/09 06:44:06;;;;;;;8.23;5.35;;;19.20;99.90;;;;;;5114192;28;20058;-77
2023/07/09 06:46:32;;;;;;;9.07;5.93;;;19.30;99.90;;;;;;5113722;28;20060;-77
2023/07/09 06:48:58;;;;;;;11.18;7.00;;;19.30;99.90;;;;;;5114125;28;20032;-77
2023/07/09 06:51:24;;;;;;;11.27;6.70;;;19.40;99.90;;;;;;5095690;28;20031;-77
2023/07/09 06:53:51;;;;;;;9.60;5.82;;;19.50;99.90;;;;;;5114147;28;20024;-77
2023/07/09 06:56:17;;;;;;;8.57;5.72;;;19.50;99.90;;;;;;5096102;28;20483;-76
2023/07/09 06:58:45;;;;;;;9.77;6.60;;;19.60;99.90;;;;;;5114105;28;20022;-77
2023/07/09 07:01:12;;;;;;;12.75;6.53;;;19.80;99.90;;;;;;5114263;28;20384;-77
2023/07/09 07:03:38;;;;;;;8.82;5.80;;;19.90;99.90;;;;;;5096193;28;20028;-77
2023/07/09 07:06:08;;;;;;;11.63;7.47;;;20.00;99.90;;;;;;5095493;28;20032;-76
2023/07/09 07:08:34;;;;;;;9.80;6.47;;;20.10;99.90;;;;;;5096571;28;20020;-76
2023/07/09 07:11:02;;;;;;;8.68;5.90;;;20.30;99.90;;;;;;5113955;28;20094;-76
2023/07/09 07:13:39;;;;;;;11.20;6.43;;;20.30;99.90;;;;;;5113852;28;20042;-76
2023/07/09 07:16:11;;;;;;;11.10;6.68;;;20.40;99.90;;;;;;5113718;28;20024;-76
2023/07/09 07:18:37;;;;;;;10.15;6.85;;;20.50;99.90;;;;;;5095589;28;20024;-76
2023/07/09 07:21:04;;;;;;;10.80;6.70;;;20.70;99.90;;;;;;5113785;28;20024;-76
2023/07/09 07:23:30;;;;;;;8.38;5.80;;;20.80;99.90;;;;;;5113794;28;20016;-76
2023/07/09 07:25:56;;;;;;;12.60;6.97;;;20.90;99.90;;;;;;5113783;28;20436;-76
2023/07/09 07:28:21;;;;;;;11.98;6.63;;;21.00;99.90;;;;;;5113797;28;20055;-76
2023/07/09 07:30:57;;;;;;;10.40;6.13;;;21.10;99.90;;;;;;5095491;28;20500;-76
2023/07/09 07:33:23;;;;;;;8.55;5.35;;;21.30;99.90;;;;;;5114013;28;20020;-77
2023/07/09 07:35:49;;;;;;;7.03;4.25;;;21.40;99.90;;;;;;5096027;28;20393;-76
2023/07/09 07:38:14;;;;;;;8.65;5.47;;;21.60;99.90;;;;;;5114050;28;20024;-76
2023/07/09 07:40:44;;;;;;;9.07;5.78;;;21.70;99.90;;;;;;5095475;28;20488;-76
2023/07/09 07:43:10;;;;;;;9.27;5.70;;;21.90;99.90;;;;;;5114319;28;20043;-76
2023/07/09 07:45:40;;;;;;;10.93;6.97;;;22.10;99.90;;;;;;5113685;28;20438;-76
2023/07/09 07:48:05;;;;;;;12.43;7.55;;;22.20;99.90;;;;;;5113690;28;20024;-76
2023/07/09 07:50:31;;;;;;;10.00;6.32;;;22.40;99.90;;;;;;5113692;28;20534;-75
2023/07/09 07:52:57;;;;;;;9.10;6.90;;;22.60;99.90;;;;;;5095191;28;20369;-76
2023/07/09 07:55:22;;;;;;;11.27;7.45;;;22.70;99.90;;;;;;5113424;28;20499;-76
2023/07/09 07:57:48;;;;;;;10.43;6.97;;;22.90;99.90;;;;;;5098844;28;20122;-76
2023/07/09 08:00:15;;;;;;;11.32;7.80;;;23.10;99.90;;;;;;5117399;28;20065;-76
2023/07/09 08:02:41;;;;;;;14.40;7.95;;;23.20;99.90;;;;;;5117864;28;20024;-76
2023/07/09 08:05:06;;;;;;;12.13;8.23;;;23.40;99.90;;;;;;5117856;28;20024;-76
2023/07/09 08:07:32;;;;;;;12.52;8.25;;;23.50;99.90;;;;;;5098706;28;20507;-76
2023/07/09 08:09:58;;;;;;;11.60;7.70;;;23.60;99.90;;;;;;5117295;28;20042;-77
2023/07/09 08:12:23;;;;;;;10.63;6.78;;;23.70;99.90;;;;;;5099309;28;20039;-76
2023/07/09 08:14:49;;;;;;;10.45;6.70;;;23.90;99.90;;;;;;5116997;28;20039;-76
2023/07/09 08:17:15;;;;;;;9.60;6.53;;;24.00;99.90;;;;;;5115813;28;20031;-76
2023/07/09 08:19:53;;;;;;;9.00;5.70;;;24.10;99.90;;;;;;5097840;28;20434;-76
2023/07/09 08:22:22;;;;;;;9.90;6.40;;;24.20;99.90;;;;;;5117271;28;20435;-76
2023/07/09 08:24:51;;;;;;;10.35;6.30;;;24.40;99.90;;;;;;5098740;28;20477;-75
2023/07/09 08:27:18;;;;;;;9.70;5.65;;;24.50;99.90;;;;;;5098370;28;20031;-75
2023/07/09 08:29:44;;;;;;;9.48;5.97;;;24.60;99.90;;;;;;5098681;28;20106;-75
2023/07/09 08:32:11;;;;;;;8.82;5.63;;;24.80;99.90;;;;;;5117050;28;20440;-76
2023/07/09 08:34:38;;;;;;;12.32;6.20;;;24.90;99.90;;;;;;5098548;28;20031;-75
2023/07/09 08:37:04;;;;;;;8.30;5.80;;;25.00;99.90;;;;;;5116407;28;20039;-75
2023/07/09 08:39:30;;;;;;;9.05;6.00;;;25.10;99.90;;;;;;5116686;28;20027;-76
2023/07/09 08:42:07;;;;;;;8.95;5.22;;;25.20;99.90;;;;;;5116671;28;20111;-76
2023/07/09 08:45:10;;;;;;;9.73;6.00;;;25.40;99.90;;;;;;5116940;28;20024;-75
2023/07/09 08:48:00;;;;;;;8.23;5.38;;;25.50;99.90;;;;;;5116508;28;20024;-75
2023/07/09 08:50:34;;;;;;;7.53;4.82;;;25.60;99.90;;;;;;5116311;28;20024;-75
2023/07/09 08:53:01;;;;;;;6.25;3.88;;;25.80;99.90;;;;;;5116350;28;20028;-75
2023/07/09 08:55:38;;;;;;;9.68;4.80;;;26.00;96.90;;;;;;5097970;28;20477;-75
2023/07/09 08:58:17;;;;;;;8.43;5.15;;;26.10;96.80;;;;;;5116171;28;20085;-75
2023/07/09 09:00:55;;;;;;;7.47;4.38;;;26.20;97.90;;;;;;5098016;28;20027;-75
2023/07/09 09:03:43;;;;;;;6.30;4.13;;;26.30;96.60;;;;;;5116215;28;20024;-75
2023/07/09 09:06:25;;;;;;;6.72;4.13;;;26.40;96.70;;;;;;5115716;28;20024;-75
2023/07/09 09:08:55;;;;;;;;;;;26.50;96.50;;;;;;5115852;28;20038;-76
2023/07/09 09:11:23;;;;;;;;;;;26.60;96.40;;;;;;5116810;28;20007;-76
2023/07/09 09:13:51;;;;;;;;;;;26.80;96.30;;;;;;5113777;28;19914;-73
2023/07/09 09:16:22;;;;;;;;;;;26.90;93.80;;;;;;5115201;28;20261;-76
2023/07/09 09:18:48;;;;;;;;;;;27.00;92.80;;;;;;5111223;28;20303;-75
2023/07/09 09:21:23;;;;;;;;;;;27.10;92.00;;;;;;5082245;28;19911;-75
2023/07/09 09:23:52;;;;;;;;;;;27.20;90.80;;;;;;5116128;28;19942;-75
2023/07/09 09:26:37;;;;;;;;;;;27.40;90.00;;;;;;5115184;28;19951;-74
2023/07/09 09:29:13;;;;;;;;;;;27.50;89.20;;;;;;5113805;28;19904;-74
2023/07/09 09:31:39;;;;;;;;;;;27.60;88.00;;;;;;5112984;28;19904;-74
2023/07/09 09:34:17;;;;;;;;;;;27.70;86.50;;;;;;5113891;28;20560;-75
2023/07/09 09:36:42;;;;;;;;;;;27.80;83.70;;;;;;5114042;28;19958;-74
2023/07/09 09:39:09;;;;;;;;;;;27.90;85.30;;;;;;5115326;28;20292;-74
2023/07/09 09:41:36;;;;;;;;;;;28.10;84.90;;;;;;5114642;28;19907;-75
2023/07/09 09:44:02;;;;;;;;;;;28.20;80.10;;;;;;5115255;28;20053;-75
2023/07/09 09:46:28;;;;;;;;;;;28.30;79.40;;;;;;5117015;28;19912;-75
2023/07/09 09:48:54;;;;;;;;;;;28.40;78.20;;;;;;5115911;28;19926;-75
2023/07/09 09:51:22;;;;;;;;;;;28.50;76.80;;;;;;5115961;28;20310;-76
2023/07/09 09:53:49;;;;;;;;;;;28.60;76.70;;;;;;5115572;28;20308;-76
2023/07/09 09:56:20;;;;;;;;;;;28.80;78.10;;;;;;5115562;28;19910;-75
2023/07/09 09:58:46;;;;;;;;;;;28.90;78.70;;;;;;5115483;28;20285;-75
2023/07/09 10:01:16;;;;;;;5.28;3.00;;;29.00;78.90;;;;;;5115017;28;19907;-76
2023/07/09 10:03:44;;;;;;;5.35;2.58;;;29.20;76.60;;;;;;5115061;28;20035;-75
2023/07/09 10:06:19;;;;;;;6.55;3.25;;;29.20;75.60;;;;;;5114864;28;20473;-75
2023/07/09 10:09:01;;;;;;;5.10;3.15;;;29.20;72.50;;;;;;5096619;28;20024;-75
2023/07/09 10:11:45;;;;;;;5.30;3.33;;;29.30;74.10;;;;;;5115135;28;20020;-75
2023/07/09 10:14:43;;;;;;;6.72;3.13;;;29.30;73.50;;;;;;5115300;28;20419;-75
2023/07/09 10:17:26;;;;;;;5.07;3.00;;;29.40;71.10;;;;;;5114826;28;20020;-74
2023/07/09 10:19:58;;;;;;;5.47;2.90;;;29.30;70.00;;;;;;5095517;28;20055;-76
2023/07/09 10:22:37;;;;;;;;;;;29.40;69.60;;;;;;5113590;28;20030;-75
2023/07/09 10:25:26;;;;;;;;;;;29.50;69.60;;;;;;5114192;28;19904;-74
2023/07/09 10:27:57;;;;;;;;;;;29.60;69.40;;;;;;5103851;28;19904;-74
2023/07/09 10:30:29;;;;;;;;;;;29.70;66.40;;;;;;5114627;28;19908;-74
2023/07/09 10:33:06;;;;;;;;;;;29.80;69.30;;;;;;5114847;28;19913;-75
2023/07/09 10:35:36;;;;;;;;;;;29.80;66.00;;;;;;5115049;28;19918;-74
2023/07/09 10:38:02;;;;;;;;;;;29.80;67.60;;;;;;5096448;28;19952;-74
2023/07/09 10:40:33;;;;;;;;;;;29.80;65.90;;;;;;5115326;28;19912;-75
2023/07/09 10:43:00;;;;;;;;;;;29.90;64.90;;;;;;5114601;28;19999;-74
2023/07/09 10:45:29;;;;;;;;;;;30.00;64.00;;;;;;5114552;28;19908;-74
2023/07/09 10:47:57;;;;;;;;;;;30.10;65.60;;;;;;5114859;28;19903;-74
2023/07/09 10:50:26;;;;;;;;;;;30.10;68.20;;;;;;5114555;28;19904;-74
2023/07/09 10:52:54;;;;;;;;;;;30.20;66.30;;;;;;5114518;28;19911;-74
2023/07/09 10:55:28;;;;;;;;;;;30.30;65.00;;;;;;5114562;28;20288;-73
2023/07/09 10:57:59;;;;;;;;;;;30.40;64.10;;;;;;5114408;28;19911;-73
2023/07/09 11:00:33;;;;;;;;;;;30.40;61.30;;;;;;5114469;28;20330;-75
2023/07/09 11:03:00;;;;;;;;;;;30.40;62.30;;;;;;5114484;28;19914;-75
2023/07/09 11:05:25;;;;;;;;;;;30.40;60.50;;;;;;5114607;28;20276;-75
2023/07/09 11:08:00;;;;;;;;;;;30.50;61.80;;;;;;5114605;28;19908;-75
2023/07/09 11:10:38;;;;;;;;;;;30.60;61.70;;;;;;5114668;28;19910;-75
2023/07/09 11:13:24;;;;;;;;;;;30.80;60.90;;;;;;5114382;28;19950;-75
2023/07/09 11:15:53;;;;;;;;;;;31.00;65.40;;;;;;5113517;28;19904;-75
2023/07/09 11:18:26;;;;;;;;;;;31.20;64.00;;;;;;5114199;28;19908;-75
2023/07/09 11:21:14;;;;;;;;;;;31.20;60.30;;;;;;5114384;28;19908;-75
2023/07/09 11:23:46;;;;;;;;;;;31.20;61.70;;;;;;5079347;28;19904;-74
2023/07/09 11:26:21;;;;;;;;;;;31.30;61.30;;;;;;5093312;28;19955;-74
2023/07/09 11:28:50;;;;;;;;;;;31.40;58.80;;;;;;5094108;28;19904;-75
2023/07/09 11:31:16;;;;;;;;;;;31.40;59.60;;;;;;5094950;28;19911;-74
2023/07/09 11:33:47;;;;;;;;;;;31.50;61.60;;;;;;5097838;28;19907;-75
2023/07/09 11:36:15;;;;;;;;;;;31.70;61.40;;;;;;5079865;28;20280;-75
2023/07/09 11:38:42;;;;;;;;;;;31.80;59.20;;;;;;5079653;28;19904;-75
2023/07/09 11:41:27;;;;;;;;;;;31.90;57.40;;;;;;5097700;28;19912;-75
2023/07/09 11:43:53;;;;;;;;;;;31.80;59.40;;;;;;5097749;28;19904;-74
2023/07/09 11:46:22;;;;;;;;;;;31.80;60.50;;;;;;5097735;28;19995;-74
2023/07/09 11:48:48;;;;;;;;;;;31.80;58.00;;;;;;5097708;28;19903;-74
2023/07/09 11:51:16;;;;;;;;;;;31.80;58.30;;;;;;5097664;28;19911;-74
2023/07/09 11:53:53;;;;;;;;;;;31.90;58.30;;;;;;5097683;28;19903;-75
2023/07/09 11:56:19;;;;;;;;;;;32.00;58.00;;;;;;5097741;28;19908;-72
2023/07/09 11:58:52;;;;;;;;;;;32.00;57.00;;;;;;5097744;28;19945;-74
2023/07/09 12:01:34;;;;;;;;;;;32.00;59.00;;;;;;5097428;28;19922;-75
2023/07/09 12:03:59;;;;;;;;;;;32.10;58.10;;;;;;5097648;28;19998;-75
2023/07/09 12:06:31;;;;;;;4.57;2.67;;;32.20;56.40;;;;;;5096996;28;19947;-73
2023/07/09 12:08:57;;;;;;;;;;;32.00;58.00;;;;;;5097355;28;20043;-74
2023/07/09 12:11:24;;;;;;;;;;;32.00;58.70;;;;;;5097662;28;19904;-74
2023/07/09 12:13:50;;;;;;;;;;;32.10;56.30;;;;;;5097127;28;19931;-74
2023/07/09 12:16:24;;;;;;;;;;;32.20;57.10;;;;;;5097313;28;20262;-74
2023/07/09 12:18:50;;;;;;;;;;;32.20;56.40;;;;;;5097397;28;19904;-74
2023/07/09 12:21:16;;;;;;;;;;;32.30;59.10;;;;;;5097065;28;19915;-74
2023/07/09 12:23:41;;;;;;;;;;;32.40;54.90;;;;;;5096942;28;19911;-76
2023/07/09 12:26:11;;;;;;;;;;;32.50;55.20;;;;;;5097177;28;19908;-74
2023/07/09 12:28:37;;;;;;;;;;;32.50;56.90;;;;;;5096939;28;19990;-74
2023/07/09 12:31:02;;;;;;;;;;;32.60;55.30;;;;;;5096979;28;19958;-74
2023/07/09 12:33:28;;;;;;;;;;;32.60;52.30;;;;;;5078866;28;20030;-74
2023/07/09 12:35:58;;;;;;;;;;;32.60;54.80;;;;;;5096426;28;19951;-72
2023/07/09 12:38:25;;;;;;;;;;;32.60;58.80;;;;;;5096548;28;19904;-73
2023/07/09 12:40:52;;;;;;;;;;;32.70;56.10;;;;;;5096671;28;19915;-74
2023/07/09 12:43:28;;;;;;;;;;;32.70;57.10;;;;;;5095599;28;19911;-72
2023/07/09 12:45:54;;;;;;;;;;;32.70;56.00;;;;;;5096683;28;19904;-74
2023/07/09 12:48:24;;;;;;;;;;;32.70;53.00;;;;;;5078442;28;20007;-74
2023/07/09 12:50:50;;;;;;;;;;;32.80;55.60;;;;;;5096285;28;19992;-74
2023/07/09 12:53:17;;;;;;;;;;;32.80;54.90;;;;;;5097433;28;20319;-75
2023/07/09 12:55:45;;;;;;;;;;;32.90;53.40;;;;;;5096250;28;19908;-75
2023/07/09 12:58:18;;;;;;;;;;;32.90;53.20;;;;;;5096871;28;19904;-71
2023/07/09 13:00:51;;;;;;;;;;;32.80;53.40;;;;;;5096277;28;19908;-73
2023/07/09 13:03:17;;;;;;;;;;;32.70;52.90;;;;;;5096408;28;20392;-74
2023/07/09 13:05:58;;;;;;;;;;;32.70;52.10;;;;;;5096122;28;20349;-73
2023/07/09 13:08:24;;;;;;;;;;;32.70;54.70;;;;;;5096269;28;19908;-74
2023/07/09 13:10:51;;;;;;;;;;;32.70;55.30;;;;;;5096373;28;20032;-74
2023/07/09 13:13:19;;;;;;;;;;;32.80;52.60;;;;;;5096458;28;19995;-74
2023/07/09 13:15:48;;;;;;;;;;;32.80;53.60;;;;;;5096211;28;19911;-74
2023/07/09 13:18:14;;;;;;;;;;;32.80;53.70;;;;;;5096027;28;19905;-73